Time;durP1;ratioP1;P1;durP2;ratioP2;P2;SDS_P1;SDS_P2;PMS_P1;PMS_P2;Temp;Humidity;BMP_temperature;BMP_pressure;BME280_temperature;BME280_humidity;BME280_pressure;Samples;Min_cycle;Max_cycle;Signal;HPM_P1;HPM_P2
2022/11/06 00:02:14;;;;;;;10.77;3.25;;;;;;;7.56;100.00;101374.00;6183107;23;20021;-84
2022/11/06 00:04:39;;;;;;;8.63;3.23;;;;;;;7.55;100.00;101367.06;6184295;23;20005;-84
2022/11/06 00:07:06;;;;;;;8.03;3.03;;;;;;;7.54;100.00;101372.59;6185004;23;20008;-84
2022/11/06 00:09:33;;;;;;;10.57;3.00;;;;;;;7.51;100.00;101386.38;6185274;23;20001;-83
2022/11/06 00:11:58;;;;;;;9.18;3.00;;;;;;;7.37;100.00;101381.19;6185186;23;20333;-83
2022/11/06 00:14:24;;;;;;;11.23;3.30;;;;;;;7.34;100.00;101386.16;6185110;23;20008;-84
2022/11/06 00:16:50;;;;;;;9.77;3.28;;;;;;;7.24;100.00;101378.69;6193089;23;20001;-83
2022/11/06 00:19:15;;;;;;;16.07;3.70;;;;;;;7.23;100.00;101382.38;6163403;23;20456;-84
2022/11/06 00:21:42;;;;;;;8.80;2.77;;;;;;;7.19;100.00;101379.34;6182737;23;20080;-84
2022/11/06 00:24:09;;;;;;;15.63;3.53;;;;;;;7.15;100.00;101374.66;6187587;23;20229;-84
2022/11/06 00:26:36;;;;;;;10.52;3.28;;;;;;;7.11;100.00;101375.13;6197438;23;20009;-83
2022/11/06 00:29:02;;;;;;;8.10;3.10;;;;;;;7.09;100.00;101374.53;6191403;23;20456;-83
2022/11/06 00:31:32;;;;;;;8.73;2.47;;;;;;;6.99;100.00;101363.56;6194603;23;20001;-83
2022/11/06 00:33:59;;;;;;;10.40;2.92;;;;;;;7.05;100.00;101362.69;6185852;23;20063;-83
2022/11/06 00:36:29;;;;;;;12.55;3.35;;;;;;;7.08;100.00;101366.75;6183067;23;20051;-83
2022/11/06 00:38:55;;;;;;;9.75;2.78;;;;;;;7.04;100.00;101366.38;6183093;23;20014;-83
2022/11/06 00:41:21;;;;;;;9.70;2.50;;;;;;;6.99;100.00;101347.56;6182441;23;20001;-83
2022/11/06 00:43:48;;;;;;;10.40;2.90;;;;;;;6.95;100.00;101343.69;6183203;23;20383;-85
2022/11/06 00:46:14;;;;;;;7.90;2.50;;;;;;;6.90;100.00;101344.38;6183856;23;20005;-83
2022/11/06 00:48:40;;;;;;;9.80;2.67;;;;;;;6.91;100.00;101340.69;6185632;23;20240;-83
2022/11/06 00:51:11;;;;;;;9.30;3.05;;;;;;;6.99;100.00;101344.91;6184508;23;20021;-83
2022/11/06 00:53:36;;;;;;;11.25;3.08;;;;;;;7.06;100.00;101345.66;6158649;23;20029;-83
2022/11/06 00:56:06;;;;;;;11.07;2.60;;;;;;;7.06;100.00;101352.81;6184657;23;20338;-83
2022/11/06 00:58:32;;;;;;;13.80;2.60;;;;;;;7.08;100.00;101356.91;6184989;23;20001;-83
2022/11/06 01:01:09;;;;;;;9.07;2.78;;;;;;;7.05;100.00;101364.50;6184705;23;20332;-83
2022/11/06 01:03:35;;;;;;;8.05;2.88;;;;;;;7.01;100.00;101356.16;6184874;23;20005;-82
2022/11/06 01:06:12;;;;;;;8.63;2.70;;;;;;;6.96;100.00;101359.50;6185011;23;20143;-83
2022/11/06 01:08:38;;;;;;;14.60;3.72;;;;;;;6.90;100.00;101344.38;6184819;23;20012;-83
2022/11/06 01:11:24;;;;;;;13.18;3.10;;;;;;;6.87;100.00;101334.16;6183893;23;20001;-83
2022/11/06 01:13:52;;;;;;;11.00;2.78;;;;;;;6.94;100.00;101347.41;6184314;23;20009;-83
2022/11/06 01:16:19;;;;;;;13.10;2.97;;;;;;;6.88;100.00;101346.44;6184668;23;20020;-84
2022/11/06 01:18:45;;;;;;;12.65;2.75;;;;;;;6.76;100.00;101334.88;6184647;23;20005;-83
2022/11/06 01:21:20;;;;;;;8.00;2.47;;;;;;;6.87;100.00;101349.34;6197646;23;20012;-83
2022/11/06 01:23:46;;;;;;;8.98;2.72;;;;;;;6.88;100.00;101350.97;6192977;23;20009;-83
2022/11/06 01:26:13;;;;;;;12.73;2.55;;;;;;;6.84;100.00;101333.78;6184793;23;20118;-84
2022/11/06 01:28:40;;;;;;;9.35;2.70;;;;;;;6.90;100.00;101340.91;6185215;23;20036;-83
2022/11/06 01:31:14;;;;;;;10.20;2.45;;;;;;;6.92;100.00;101331.66;6185107;23;20009;-84
2022/11/06 01:33:39;;;;;;;5.88;2.90;;;;;;;6.99;100.00;101331.56;6185549;23;20001;-84
2022/11/06 01:36:08;;;;;;;12.17;2.77;;;;;;;7.07;100.00;101328.63;6185255;23;20092;-83
2022/11/06 01:38:33;;;;;;;9.15;2.28;;;;;;;7.05;100.00;101317.38;6184466;23;20055;-84
2022/11/06 01:41:00;;;;;;;9.13;2.63;;;;;;;7.15;100.00;101321.34;6184263;23;20005;-83
2022/11/06 01:43:53;;;;;;;11.90;2.10;;;;;;;7.18;100.00;101312.94;6189310;23;20009;-84
2022/11/06 01:46:20;;;;;;;11.10;2.22;;;;;;;7.26;100.00;101309.97;6164193;23;20013;-84
2022/11/06 01:48:49;;;;;;;6.50;2.30;;;;;;;7.25;100.00;101295.81;6186097;23;20013;-84
2022/11/06 01:51:15;;;;;;;5.53;2.40;;;;;;;7.31;100.00;101304.75;6184057;23;20067;-83
2022/11/06 01:53:40;;;;;;;9.07;2.28;;;;;;;7.36;100.00;101310.25;6184329;23;20001;-84
2022/11/06 01:56:09;;;;;;;12.40;2.45;;;;;;;7.38;100.00;101302.84;6183757;23;20005;-84
2022/11/06 01:58:37;;;;;;;10.02;2.15;;;;;;;7.51;100.00;101319.69;6184283;23;20001;-83
2022/11/06 02:01:03;;;;;;;10.13;2.60;;;;;;;7.53;100.00;101305.13;6183790;23;20008;-83
2022/11/06 02:03:28;;;;;;;8.63;2.20;;;;;;;7.62;100.00;101313.63;6184447;23;20315;-84
2022/11/06 02:05:55;;;;;;;8.02;2.40;;;;;;;7.64;100.00;101306.22;6184296;23;20084;-84
2022/11/06 02:08:22;;;;;;;9.50;2.50;;;;;;;7.70;100.00;101315.16;6183935;23;20384;-84
2022/11/06 02:10:48;;;;;;;7.82;2.22;;;;;;;7.75;100.00;101311.81;6183360;23;20032;-84
2022/11/06 02:13:22;;;;;;;8.13;2.00;;;;;;;7.78;100.00;101312.16;6183764;23;20001;-84
2022/11/06 02:15:54;;;;;;;9.75;2.40;;;;;;;7.81;100.00;101300.22;6183140;23;20016;-84
2022/11/06 02:18:28;;;;;;;8.75;2.05;;;;;;;7.83;100.00;101296.28;6183385;23;20001;-84
2022/11/06 02:21:20;;;;;;;11.50;2.25;;;;;;;7.85;100.00;101301.41;6183051;23;20041;-84
2022/11/06 02:24:16;;;;;;;7.00;1.88;;;;;;;7.85;100.00;101290.75;6148118;23;20009;-84
2022/11/06 02:26:44;;;;;;;7.32;1.90;;;;;;;7.86;100.00;101287.00;6183448;23;20001;-83
2022/11/06 02:29:18;;;;;;;7.00;1.80;;;;;;;7.86;100.00;101287.00;6183936;23;20044;-84
2022/11/06 02:31:45;;;;;;;11.00;2.17;;;;;;;7.82;100.00;101285.84;6156560;23;20593;-84
2022/11/06 02:34:14;;;;;;;5.22;1.90;;;;;;;7.78;100.00;101285.47;6183780;23;20005;-84
2022/11/06 02:36:46;;;;;;;8.95;2.25;;;;;;;7.75;100.00;101282.44;6183529;23;20005;-84
2022/11/06 02:39:15;;;;;;;10.18;2.22;;;;;;;7.73;100.00;101288.81;6183443;23;20005;-84
2022/11/06 02:41:43;;;;;;;4.85;1.90;;;;;;;7.66;100.00;101282.78;6182727;23;20005;-84
2022/11/06 02:44:13;;;;;;;14.35;2.38;;;;;;;7.61;100.00;101279.97;6183581;23;20005;-84
2022/11/06 02:46:45;;;;;;;7.88;2.05;;;;;;;7.54;100.00;101276.59;6156923;23;20032;-84
2022/11/06 02:49:22;;;;;;;11.57;2.13;;;;;;;7.56;100.00;101278.00;6183566;23;20520;-84
2022/11/06 02:51:52;;;;;;;6.85;2.03;;;;;;;7.60;100.00;101265.03;6182743;23;20001;-84
2022/11/06 02:54:20;;;;;;;10.00;1.73;;;;;;;7.66;100.00;101272.13;6183470;23;20016;-84
2022/11/06 02:56:51;;;;;;;14.03;2.30;;;;;;;7.71;100.00;101271.44;6183225;23;20748;-84
2022/11/06 02:59:20;;;;;;;9.73;2.20;;;;;;;7.79;100.00;101270.28;6183476;23;20013;-84
2022/11/06 03:01:53;;;;;;;7.97;1.98;;;;;;;7.77;100.00;101275.03;6182302;23;20005;-84
2022/11/06 03:04:25;;;;;;;9.75;2.70;;;;;;;7.62;100.00;101260.28;6156629;23;20001;-83
2022/11/06 03:06:57;;;;;;;8.05;2.20;;;;;;;7.61;100.00;101269.31;6183430;23;20016;-84
2022/11/06 03:09:28;;;;;;;8.50;1.90;;;;;;;7.63;100.00;101271.75;6183660;23;20029;-84
2022/11/06 03:12:00;;;;;;;10.27;1.98;;;;;;;7.71;100.00;101284.78;6182971;23;20337;-83
2022/11/06 03:14:31;;;;;;;9.10;2.10;;;;;;;7.68;100.00;101286.03;6193348;23;20055;-84
2022/11/06 03:17:08;;;;;;;9.47;2.20;;;;;;;7.72;100.00;101286.41;6195591;23;20033;-83
2022/11/06 03:19:41;;;;;;;10.70;2.10;;;;;;;7.87;100.00;101283.28;6197782;23;20275;-83
2022/11/06 03:22:31;;;;;;;10.02;2.10;;;;;;;7.95;100.00;101280.31;6191234;23;20017;-83
2022/11/06 03:24:58;;;;;;;8.05;2.10;;;;;;;7.94;100.00;101268.00;6156959;23;20369;-84
2022/11/06 03:27:42;;;;;;;7.70;1.85;;;;;;;7.92;100.00;101272.75;6183369;23;20338;-84
2022/11/06 03:30:11;;;;;;;8.52;2.33;;;;;;;7.88;100.00;101255.56;6181394;23;20074;-84
2022/11/06 03:32:39;;;;;;;9.40;2.05;;;;;;;7.76;100.00;101244.88;6155715;23;20016;-84
2022/11/06 03:35:08;;;;;;;6.88;1.80;;;;;;;7.71;100.00;101264.22;6183260;23;20012;-84
2022/11/06 03:37:39;;;;;;;10.73;2.10;;;;;;;7.55;100.00;101227.53;6183132;23;20092;-84
2022/11/06 03:40:10;;;;;;;9.40;1.87;;;;;;;7.53;100.00;101240.28;6182659;23;20001;-83
2022/11/06 03:42:40;;;;;;;9.33;1.80;;;;;;;7.40;100.00;101239.44;6183490;23;20248;-84
2022/11/06 03:45:14;;;;;;;11.95;1.90;;;;;;;7.38;100.00;101230.84;6182739;23;20005;-84
2022/11/06 03:47:54;;;;;;;7.90;1.98;;;;;;;7.51;100.00;101237.03;6183344;23;20005;-83
2022/11/06 03:50:28;;;;;;;15.98;2.20;;;;;;;7.54;100.00;101228.56;6156041;23;20426;-83
2022/11/06 03:52:59;;;;;;;10.85;2.95;;;;;;;7.66;100.00;101229.44;6183337;23;20009;-84
2022/11/06 03:55:30;;;;;;;9.93;1.95;;;;;;;7.77;100.00;101219.03;6157633;23;20005;-84
2022/11/06 03:58:03;;;;;;;12.77;2.40;;;;;;;7.78;100.00;101215.31;6182788;23;20013;-84
2022/11/06 04:00:30;;;;;;;9.23;2.03;;;;;;;7.85;100.00;101214.16;6182335;23;20092;-84
2022/11/06 04:03:03;;;;;;;13.67;3.10;;;;;;;7.91;100.00;101208.97;6183331;23;20017;-84
2022/11/06 04:05:33;;;;;;;4.37;1.90;;;;;;;7.84;100.00;101195.72;6182796;23;20239;-84
2022/11/06 04:16:16;;;;;;;14.65;1.80;;;;;;;7.95;100.00;101194.91;6183061;23;20047;-83
2022/11/06 04:18:42;;;;;;;6.10;2.03;;;;;;;7.96;100.00;101195.72;6183140;23;20058;-84
2022/11/06 04:21:28;;;;;;;11.33;2.17;;;;;;;7.93;100.00;101190.88;6183206;23;20005;-84
2022/11/06 04:27:02;;;;;;;9.30;2.13;;;;;;;7.79;100.00;101167.03;6184829;23;20068;-84
2022/11/06 04:29:47;;;;;;;7.03;2.00;;;;;;;7.81;100.00;101167.63;6185001;23;20039;-84
2022/11/06 04:32:31;;;;;;;12.37;1.90;;;;;;;7.82;100.00;101165.78;6184894;23;20746;-84
2022/11/06 04:35:04;;;;;;;7.88;1.88;;;;;;;7.87;100.00;101174.72;6184725;23;20437;-84
2022/11/06 04:37:53;;;;;;;11.07;2.13;;;;;;;7.74;100.00;101150.94;6184747;23;20005;-84
2022/11/06 04:40:31;;;;;;;8.80;1.98;;;;;;;7.77;100.00;101171.00;6183977;23;20052;-83
2022/11/06 04:43:21;;;;;;;7.72;1.70;;;;;;;7.68;100.00;101170.53;6184828;23;20088;-84
2022/11/06 04:45:50;;;;;;;7.72;1.60;;;;;;;7.62;100.00;101163.44;6184641;23;20013;-84
2022/11/06 04:48:17;;;;;;;11.13;1.65;;;;;;;7.47;100.00;101151.34;6184659;23;20015;-84
2022/11/06 04:50:48;;;;;;;5.75;2.20;;;;;;;7.43;100.00;101156.34;6157446;23;20341;-84
2022/11/06 04:53:16;;;;;;;4.03;1.90;;;;;;;7.38;100.00;101166.88;6184773;23;20329;-84
2022/11/06 04:55:46;;;;;;;5.03;1.90;;;;;;;7.22;100.00;101149.66;6184261;23;20237;-84
2022/11/06 04:58:12;;;;;;;4.97;1.90;;;;;;;7.25;100.00;101169.72;6184717;23;20001;-84
2022/11/06 05:00:43;;;;;;;8.85;1.83;;;;;;;7.17;100.00;101156.72;6183281;23;20008;-84
2022/11/06 05:03:08;;;;;;;11.25;2.50;;;;;;;7.15;100.00;101148.94;6184232;23;20004;-83
2022/11/06 05:05:34;;;;;;;6.47;1.40;;;;;;;7.22;100.00;101159.50;6184263;23;20425;-83
2022/11/06 05:07:59;;;;;;;9.33;2.00;;;;;;;7.15;100.00;101142.78;6184514;23;20001;-84
2022/11/06 05:10:24;;;;;;;7.17;1.50;;;;;;;7.19;100.00;101149.31;6183797;23;20004;-84
2022/11/06 05:12:49;;;;;;;10.63;2.33;;;;;;;7.16;100.00;101144.41;6184768;23;20449;-84
2022/11/06 05:15:18;;;;;;;5.77;2.00;;;;;;;7.11;100.00;101134.44;6184450;23;19997;-84
2022/11/06 05:17:43;;;;;;;9.35;2.03;;;;;;;7.03;100.00;101118.78;6184638;23;20005;-83
2022/11/06 05:20:08;;;;;;;7.57;2.33;;;;;;;7.12;100.00;101123.53;6183818;23;20448;-86
2022/11/06 05:22:59;;;;;;;6.72;1.73;;;;;;;7.22;100.00;101139.00;6184237;23;20029;-83
2022/11/06 05:25:28;;;;;;;9.90;2.00;;;;;;;7.24;100.00;101133.44;6184087;23;20381;-84
2022/11/06 05:27:54;;;;;;;10.95;1.73;;;;;;;7.27;100.00;101138.34;6183948;23;20076;-84
2022/11/06 05:30:19;;;;;;;7.13;2.30;;;;;;;7.10;100.00;101128.31;6183486;23;20365;-84
2022/11/06 05:32:44;;;;;;;8.80;2.40;;;;;;;7.07;100.00;101120.78;6184042;23;20698;-84
2022/11/06 05:35:09;;;;;;;7.38;1.73;;;;;;;7.11;100.00;101132.59;6184192;23;20005;-84
2022/11/06 05:37:35;;;;;;;6.47;2.10;;;;;;;7.11;100.00;101129.94;6183980;23;20028;-83
2022/11/06 05:40:00;;;;;;;7.67;2.20;;;;;;;7.08;100.00;101130.41;6183172;23;20036;-83
2022/11/06 05:42:25;;;;;;;11.93;2.10;;;;;;;7.06;100.00;101119.16;6184233;23;20009;-84
2022/11/06 05:44:50;;;;;;;7.13;1.93;;;;;;;7.16;100.00;101128.44;6184046;23;20012;-84
2022/11/06 05:47:16;;;;;;;8.83;2.20;;;;;;;7.29;100.00;101120.25;6183866;23;20016;-84
2022/11/06 05:49:41;;;;;;;11.00;2.20;;;;;;;7.20;100.00;101114.44;6183428;23;20048;-84
2022/11/06 05:52:06;;;;;;;7.53;1.90;;;;;;;7.32;100.00;101124.31;6183984;23;20053;-84
2022/11/06 05:54:32;;;;;;;9.57;2.03;;;;;;;7.32;100.00;101122.44;6184155;23;20233;-84
2022/11/06 05:56:57;;;;;;;9.43;2.00;;;;;;;7.21;100.00;101099.25;6184466;23;20103;-83
2022/11/06 05:59:22;;;;;;;8.90;2.03;;;;;;;7.25;100.00;101122.53;6184750;23;20001;-84
2022/11/06 06:01:47;;;;;;;7.80;2.40;;;;;;;7.21;100.00;101115.25;6190401;23;20406;-83
2022/11/06 06:04:13;;;;;;;5.30;1.53;;;;;;;7.13;100.00;101103.06;6197462;23;20009;-84
2022/11/06 06:06:38;;;;;;;6.73;1.87;;;;;;;7.17;100.00;101109.56;6198198;23;19997;-83
2022/11/06 06:09:04;;;;;;;7.95;1.85;;;;;;;7.14;100.00;101115.34;6196426;23;20015;-83
2022/11/06 06:11:29;;;;;;;8.83;2.20;;;;;;;7.16;100.00;101112.44;6184013;23;20005;-84
2022/11/06 06:13:54;;;;;;;6.07;1.97;;;;;;;7.19;100.00;101098.66;6184837;23;20013;-85
2022/11/06 06:16:20;;;;;;;11.13;2.07;;;;;;;7.18;100.00;101094.38;6184458;23;20076;-84
2022/11/06 06:18:49;;;;;;;11.43;2.22;;;;;;;7.25;100.00;101095.88;6184318;23;20045;-84
2022/11/06 06:21:15;;;;;;;6.13;2.28;;;;;;;7.26;100.00;101091.38;6183352;23;20005;-84
2022/11/06 06:23:42;;;;;;;8.38;1.67;;;;;;;7.25;100.00;101089.75;6183890;23;20068;-84
2022/11/06 06:26:08;;;;;;;9.82;2.00;;;;;;;7.25;100.00;101090.56;6184139;23;19997;-84
2022/11/06 06:28:33;;;;;;;8.17;1.83;;;;;;;7.16;100.00;101078.63;6158206;23;20009;-84
2022/11/06 06:31:03;;;;;;;10.40;2.17;;;;;;;7.28;100.00;101094.63;6183270;23;20298;-85
2022/11/06 06:33:28;;;;;;;10.55;1.90;;;;;;;7.30;100.00;101091.72;6183574;23;20001;-85
2022/11/06 06:35:53;;;;;;;11.37;2.10;;;;;;;7.28;100.00;101091.97;6183968;23;20005;-84
2022/11/06 06:38:19;;;;;;;7.63;1.80;;;;;;;7.29;100.00;101085.59;6183871;23;20047;-85
2022/11/06 06:40:44;;;;;;;9.13;1.77;;;;;;;7.33;100.00;101101.94;6183481;23;20005;-84
2022/11/06 06:43:09;;;;;;;5.83;1.93;;;;;;;7.37;100.00;101092.44;6183920;23;20008;-85
2022/11/06 06:45:34;;;;;;;8.83;2.00;;;;;;;7.39;100.00;101101.84;6183494;23;20568;-84
2022/11/06 06:48:04;;;;;;;12.03;1.80;;;;;;;7.39;100.00;101106.38;6183991;23;20005;-84
2022/11/06 06:50:29;;;;;;;8.48;2.40;;;;;;;7.34;100.00;101104.38;6183156;23;20158;-84
2022/11/06 06:52:56;;;;;;;7.25;2.00;;;;;;;7.38;100.00;101102.88;6156973;23;20423;-84
2022/11/06 06:55:21;;;;;;;6.40;2.00;;;;;;;7.37;100.00;101103.91;6183871;23;20009;-85
2022/11/06 06:57:46;;;;;;;15.43;3.00;;;;;;;7.36;100.00;101078.28;6184246;23;20446;-84
2022/11/06 07:00:12;;;;;;;5.97;1.90;;;;;;;7.48;100.00;101098.84;6183267;23;20012;-84
2022/11/06 07:02:38;;;;;;;7.37;1.70;;;;;;;7.52;100.00;101097.31;6183774;23;20037;-85
2022/11/06 07:05:03;;;;;;;10.43;1.95;;;;;;;7.59;100.00;101090.03;6184043;23;20033;-84
2022/11/06 07:07:29;;;;;;;5.63;1.87;;;;;;;7.75;100.00;101098.38;6184209;23;20073;-84
2022/11/06 07:09:55;;;;;;;9.20;2.00;;;;;;;7.78;100.00;101082.72;6183352;23;20024;-84
2022/11/06 07:12:21;;;;;;;9.63;2.15;;;;;;;8.00;100.00;101092.81;6157798;23;20005;-84
2022/11/06 07:14:46;;;;;;;6.27;1.43;;;;;;;8.10;100.00;101078.88;6185162;23;20005;-84
2022/11/06 07:17:11;;;;;;;8.90;1.70;;;;;;;8.30;100.00;101081.97;6184835;23;20009;-85
2022/11/06 07:19:37;;;;;;;8.87;1.67;;;;;;;8.36;100.00;101079.41;6184753;23;20076;-84
2022/11/06 07:22:02;;;;;;;6.40;1.67;;;;;;;8.50;100.00;101072.75;6184662;23;20015;-85
2022/11/06 07:24:27;;;;;;;11.13;1.83;;;;;;;8.60;100.00;101083.63;6184686;23;20012;-84
2022/11/06 07:26:53;;;;;;;8.57;1.83;;;;;;;8.69;100.00;101083.25;6183601;23;20430;-85
2022/11/06 07:29:18;;;;;;;5.67;1.67;;;;;;;8.82;100.00;101088.31;6184194;23;20065;-84
2022/11/06 07:31:43;;;;;;;7.67;1.67;;;;;;;8.89;100.00;101090.84;6156795;23;20441;-84
2022/11/06 07:34:09;;;;;;;4.43;1.50;;;;;;;8.90;100.00;101087.09;6183715;23;20710;-84
2022/11/06 07:36:34;;;;;;;3.90;1.40;;;;;;;9.03;100.00;101099.38;6183374;23;20001;-85
2022/11/06 07:39:00;;;;;;;7.67;1.80;;;;;;;9.08;100.00;101099.47;6183251;23;20417;-84
2022/11/06 07:41:25;;;;;;;4.82;1.50;;;;;;;9.13;100.00;101093.38;6182604;23;20020;-84
2022/11/06 07:43:50;;;;;;;6.30;1.47;;;;;;;9.15;100.00;101094.75;6183603;23;20045;-84
2022/11/06 07:46:16;;;;;;;5.93;1.50;;;;;;;9.28;100.00;101100.88;6183453;23;20015;-85
2022/11/06 07:48:41;;;;;;;5.23;1.50;;;;;;;9.33;100.00;101087.56;6183130;23;20433;-85
2022/11/06 07:51:09;;;;;;;4.77;1.50;;;;;;;9.36;100.00;101087.06;6182639;23;20009;-84
2022/11/06 07:53:35;;;;;;;6.72;1.50;;;;;;;9.32;100.00;101062.69;6183440;23;20001;-86
2022/11/06 07:56:01;;;;;;;6.07;1.50;;;;;;;9.37;100.00;101065.47;6184474;23;20001;-85
2022/11/06 07:58:27;;;;;;;5.72;1.40;;;;;;;9.41;100.00;101065.78;6185840;23;20004;-85
2022/11/06 08:00:55;;;;;;;5.90;1.38;;;;;;;9.48;100.00;101065.59;6185290;23;20035;-85
2022/11/06 08:03:21;;;;;;;5.50;1.67;;;;;;;9.49;100.00;101073.41;6185457;23;20425;-84
2022/11/06 08:05:46;;;;;;;7.60;1.60;;;;;;;9.49;100.00;101070.72;6185384;23;20016;-85
2022/11/06 08:08:12;;;;;;;8.67;1.70;;;;;;;9.47;100.00;101070.16;6159344;23;20009;-85
2022/11/06 08:10:39;;;;;;;7.67;1.77;;;;;;;9.44;100.00;101069.81;6185039;23;20027;-86
2022/11/06 08:13:12;;;;;;;5.53;1.48;;;;;;;9.42;100.00;101061.22;6185538;23;20052;-86
2022/11/06 08:15:38;;;;;;;7.18;1.63;;;;;;;9.47;100.00;101070.16;6185066;23;20016;-85
2022/11/06 08:18:05;;;;;;;3.58;1.67;;;;;;;9.48;100.00;101074.44;6185443;23;20092;-85
2022/11/06 08:20:30;;;;;;;7.18;1.80;;;;;;;9.48;100.00;101065.59;6184810;23;20008;-85
2022/11/06 08:23:00;;;;;;;4.67;1.20;;;;;;;9.56;100.00;101067.88;6185636;23;20340;-85
2022/11/06 08:25:26;;;;;;;4.65;1.45;;;;;;;9.56;100.00;101046.47;6186866;23;20008;-85
2022/11/06 08:28:01;;;;;;;4.25;1.55;;;;;;;9.65;100.00;101049.53;6186568;23;20005;-85
2022/11/06 08:30:28;;;;;;;6.18;1.65;;;;;;;9.77;100.00;101050.25;6185542;23;20596;-86
2022/11/06 08:32:54;;;;;;;7.65;1.77;;;;;;;9.82;100.00;101052.16;6187769;23;20009;-85
2022/11/06 08:35:20;;;;;;;4.38;1.40;;;;;;;9.80;100.00;101040.91;6185532;23;20009;-86
2022/11/06 08:37:45;;;;;;;5.83;1.37;;;;;;;9.85;100.00;101033.78;6185580;23;20012;-86
2022/11/06 08:40:11;;;;;;;4.83;1.40;;;;;;;9.93;100.00;101045.09;6158254;23;20009;-86
2022/11/06 08:42:37;;;;;;;8.65;1.77;;;;;;;9.92;100.00;101044.28;6186293;23;20089;-87
2022/11/06 08:45:04;;;;;;;5.25;1.48;;;;;;;9.93;100.00;101040.56;6186670;23;20452;-86
2022/11/06 08:47:30;;;;;;;6.28;1.48;;;;;;;10.02;100.00;101024.88;6193442;23;20053;-86
2022/11/06 08:49:55;;;;;;;7.07;1.70;;;;;;;10.27;100.00;101031.56;6205889;23;19997;-85
2022/11/06 08:52:21;;;;;;;9.03;3.30;;;;;;;10.41;100.00;101034.72;6203627;23;20032;-87
2022/11/06 08:54:46;;;;;;;5.57;1.42;;;;;;;10.47;100.00;101028.34;6207037;23;20012;-86
2022/11/06 08:57:11;;;;;;;6.83;1.60;;;;;;;10.42;100.00;101018.38;6192542;23;20001;-86
2022/11/06 08:59:37;;;;;;;7.33;1.70;;;;;;;10.45;100.00;101019.75;6187800;23;20009;-86
2022/11/06 09:02:02;;;;;;;6.70;1.30;;;;;;;10.54;100.00;101012.88;6185974;23;20032;-86
2022/11/06 09:04:27;;;;;;;4.10;1.30;;;;;;;10.55;99.89;101009.13;6186027;23;20055;-86
2022/11/06 09:06:53;;;;;;;6.43;1.30;;;;;;;10.71;99.26;101018.13;6159278;23;20104;-86
2022/11/06 09:09:18;;;;;;;4.43;1.20;;;;;;;10.81;99.37;101011.22;6185264;23;20068;-86
2022/11/06 09:11:44;;;;;;;6.20;1.40;;;;;;;10.89;98.83;101018.81;6184497;23;20025;-87
2022/11/06 09:14:09;;;;;;;5.03;1.10;;;;;;;10.95;98.29;100998.22;6184524;23;20012;-86
2022/11/06 09:16:34;;;;;;;7.85;1.40;;;;;;;10.90;97.33;100997.13;6185376;23;20005;-86
2022/11/06 09:19:00;;;;;;;5.70;1.30;;;;;;;10.81;97.57;100984.44;6185732;23;20013;-86
2022/11/06 09:21:26;;;;;;;4.97;1.20;;;;;;;10.83;98.69;100967.03;6184782;23;20412;-86
2022/11/06 09:23:51;;;;;;;5.85;1.40;;;;;;;10.90;97.77;100977.56;6184747;23;20005;-86
2022/11/06 09:26:17;;;;;;;3.17;1.30;;;;;;;10.98;98.10;100977.06;6184781;23;20015;-87
2022/11/06 09:28:42;;;;;;;5.03;1.60;;;;;;;11.10;98.01;100971.53;6158252;23;20005;-86
2022/11/06 09:31:09;;;;;;;7.83;1.60;;;;;;;11.16;96.29;100973.19;6185017;23;20248;-86
2022/11/06 09:33:34;;;;;;;4.60;1.30;;;;;;;11.18;96.87;100967.53;6184820;23;20005;-86
2022/11/06 09:36:03;;;;;;;4.00;1.10;;;;;;;11.16;95.63;100965.13;6184904;23;20425;-85
2022/11/06 09:38:29;;;;;;;6.15;1.38;;;;;;;11.11;96.61;100956.25;6184470;23;20377;-85
2022/11/06 09:40:57;;;;;;;5.47;1.30;;;;;;;11.00;96.63;100956.16;6184304;23;20005;-86
2022/11/06 09:43:40;;;;;;;9.55;1.60;;;;;;;11.02;96.83;100972.00;6184595;23;20510;-86
2022/11/06 09:46:24;;;;;;;5.97;1.35;;;;;;;11.01;96.50;100965.81;6182915;23;20027;-86
2022/11/06 09:49:21;;;;;;;4.20;1.27;;;;;;;11.08;96.52;100972.84;6184676;23;20016;-85
2022/11/06 09:52:01;;;;;;;6.70;1.50;;;;;;;11.25;95.61;100965.47;6184183;23;20016;-87
2022/11/06 09:54:47;;;;;;;4.90;1.43;;;;;;;11.28;94.60;100950.72;6185602;23;20063;-88
2022/11/06 09:57:25;;;;;;;6.70;1.30;;;;;;;11.30;93.93;100941.34;6188181;23;20929;-86
2022/11/06 09:59:50;;;;;;;6.10;1.45;;;;;;;11.25;94.25;100954.72;6188240;23;20021;-85
2022/11/06 10:02:32;;;;;;;7.90;1.40;;;;;;;11.16;95.34;100948.22;6190959;23;20128;-86
2022/11/06 10:05:07;;;;;;;11.15;1.50;;;;;;;11.22;94.78;100957.94;6188786;23;20001;-86
2022/11/06 10:07:35;;;;;;;3.30;1.30;;;;;;;11.23;95.01;100946.13;6192736;23;20039;-85
2022/11/06 10:10:02;;;;;;;7.33;1.50;;;;;;;11.41;94.02;100949.44;6189256;23;20005;-86
2022/11/06 10:12:51;;;;;;;5.47;1.35;;;;;;;11.55;92.76;100950.59;6191517;23;20028;-87
2022/11/06 10:15:32;;;;;;;4.80;1.25;;;;;;;11.66;92.53;100954.94;6190004;23;20005;-86
2022/11/06 10:18:06;;;;;;;4.60;1.40;;;;;;;11.77;91.88;100947.75;6189156;23;20001;-87
2022/11/06 10:20:52;;;;;;;3.70;1.38;;;;;;;11.77;91.62;100936.19;6191102;23;20357;-86
2022/11/06 10:24:03;;;;;;;6.43;1.30;;;;;;;11.65;92.93;100942.59;6179928;23;20067;-86
2022/11/06 10:27:16;;;;;;;5.63;1.20;;;;;;;11.31;91.60;100926.88;6089711;23;20498;-86
2022/11/06 10:30:23;;;;;;;12.05;1.30;;;;;;;11.07;93.47;100934.50;6071009;23;20014;-87
2022/11/06 10:33:50;;;;;;;6.60;2.17;;;;;;;10.89;94.00;100923.09;6186735;23;20032;-86
2022/11/06 10:36:38;;;;;;;7.25;1.95;;;;;;;10.94;94.24;100935.75;6154300;23;20314;-86
2022/11/06 10:39:12;;;;;;;3.90;1.30;;;;;;;11.03;93.35;100922.69;6188140;23;20076;-86
2022/11/06 10:41:38;;;;;;;8.43;1.38;;;;;;;11.21;93.17;100911.53;6162552;23;20012;-85
2022/11/06 10:44:16;;;;;;;4.43;1.38;;;;;;;11.36;91.71;100918.84;6161468;23;20065;-87
2022/11/06 10:46:54;;;;;;;5.90;1.10;;;;;;;11.52;92.12;100913.53;6188504;23;20032;-86
2022/11/06 10:49:28;;;;;;;6.13;1.60;;;;;;;11.74;90.45;100909.88;6188639;23;20001;-88
2022/11/06 10:52:17;;;;;;;5.45;1.33;;;;;;;11.72;89.05;100888.66;6190255;23;20337;-84
2022/11/06 10:54:42;;;;;;;7.77;1.50;;;;;;;11.85;87.95;100889.22;6164900;23;20136;-85
2022/11/06 10:57:17;;;;;;;6.10;1.50;;;;;;;11.78;87.54;100882.22;6191612;23;20236;-85
2022/11/06 10:59:43;;;;;;;6.53;1.33;;;;;;;11.79;88.18;100877.69;6190870;23;19997;-86
2022/11/06 11:02:29;;;;;;;3.30;1.23;;;;;;;11.61;87.79;100844.06;6193240;23;20267;-84
2022/11/06 11:04:55;;;;;;;7.38;1.30;;;;;;;11.97;87.52;100866.44;6192554;23;20005;-86
2022/11/06 11:07:21;;;;;;;9.80;1.50;;;;;;;11.99;85.56;100858.13;6192915;23;20483;-86
2022/11/06 11:09:49;;;;;;;12.85;1.42;;;;;;;11.94;85.93;100853.53;6187970;23;20056;-86
2022/11/06 11:12:21;;;;;;;3.83;1.20;;;;;;;11.93;85.20;100849.25;6188136;23;20243;-86
2022/11/06 11:15:05;;;;;;;7.50;1.63;;;;;;;11.91;85.82;100856.75;6190082;23;20080;-85
2022/11/06 11:17:30;;;;;;;8.02;1.30;;;;;;;11.92;85.70;100850.31;6190369;23;20072;-85
2022/11/06 11:19:55;;;;;;;4.77;1.73;;;;;;;11.98;84.52;100853.81;6190967;23;20020;-86
2022/11/06 11:22:23;;;;;;;9.70;1.43;;;;;;;12.07;83.68;100862.16;6189920;23;20028;-86
2022/11/06 11:25:06;;;;;;;5.93;1.25;;;;;;;12.04;82.99;100855.47;6165221;23;20012;-86
2022/11/06 11:27:41;;;;;;;7.05;1.40;;;;;;;11.90;82.92;100839.03;6191132;23;20080;-86
2022/11/06 11:30:19;;;;;;;6.65;1.50;;;;;;;11.94;82.41;100842.81;6188493;23;20461;-87
2022/11/06 11:32:44;;;;;;;8.27;1.20;;;;;;;11.85;82.45;100824.78;6190484;23;20033;-86
2022/11/06 11:35:10;;;;;;;9.20;1.70;;;;;;;12.02;82.93;100830.75;6191206;23;20008;-86
2022/11/06 11:37:35;;;;;;;5.17;1.10;;;;;;;12.13;80.86;100826.19;6180651;23;20039;-85
2022/11/06 11:40:35;;;;;;;6.60;1.40;;;;;;;12.11;81.15;100821.09;6202868;23;20016;-85
2022/11/06 11:43:25;;;;;;;6.63;1.37;;;;;;;11.97;80.58;100817.28;6204611;23;20252;-86
2022/11/06 11:46:09;;;;;;;5.90;1.20;;;;;;;11.96;82.00;100819.19;6189959;23;20158;-85
2022/11/06 11:48:42;;;;;;;6.68;1.42;;;;;;;11.84;81.13;100813.25;6193108;23;20009;-86
2022/11/06 11:51:11;;;;;;;7.47;1.10;;;;;;;11.68;80.87;100814.31;6192422;23;20332;-84